Redwood City, CA (94065)

9:57 AM PDT on September 30, 2014 (GMT -0700)
Redwood Shores - Baltic Circle | Change Station
CLOSE
Current Station
Personal Weather Station
Location: Redwood City, CA
Elevation: -10 ft
Nearby Weather Stations

Elev -10 ft 37.54 °N, 122.24 °W | Updated 13 minutes ago

Mostly Cloudy
Mostly Cloudy
62.1 °F
Feels Like 62.1 °F
N
2.0
Wind Variable Wind from SE
Gusts 4.0 mph

Today
High -- | Low -- °F
--% Chance of Precip.
Yesterday
High -- | Low -- °F
Precip. -- in
7:03 AM 6:53 PM
Waxing Crescent, 38% visible
Pressure 29.99 in
Visibility 10.0 miles
Clouds Mostly Cloudy 1700 ft
Dew Point 58 °F
Humidity 87%
Rainfall 0.00 in
Snow Depth 0 in , 0 in , 0 in
UV 0.0 out of 12
Pollen 2.80 out of 12
Ozone Good
PM2.5 Good
Flu Activity Not available.
METAR KSQL 301647Z 26008KT 10SM BKN017 17/13 A2999

More Conditions Fewer Conditions

Pressure 29.99 in
Visibility 10.0 miles
Clouds Mostly Cloudy 1700 ft
Dew Point 58 °F
Humidity 87%
Rainfall 0.00 in
Snow Depth 0 in , 0 in , 0 in
UV 0.0 out of 12
Pollen 2.80 out of 12
Ozone Good
PM2.5 Good
Flu Activity Not available.
METAR KSQL 301647Z 26008KT 10SM BKN017 17/13 A2999

More Conditions Fewer Conditions

10-Day Weather Forecast

Almanac

Astronomy

Sep. 30, 2014 Rise Set
Actual Time 7:03 AM PDT 6:53 PM PDT
Civil Twilight 6:37 AM PDT 7:19 PM PDT
Nautical Twilight 6:07 AM PDT 7:49 PM PDT
Astronomical Twilight 5:36 AM PDT 8:20 PM PDT
Moon 1:11 PM PDT 11:34 PM PDT
Length of Visible Light 12h 41m
Length of Day
11h 49m
Tomorrow will be 2m 23s shorter.
Waxing Crescent, 38% of the Moon is Illuminated
Today
Waxing Crescent
Oct 1
First Quarter
Oct 8
Full
Oct 15
Last Quarter
Oct 23
New

Today's Extremes

State Highs State Lows

Community

WunderPhotos

Upload Photos

1,757,682 photos uploaded!

Nearby

Air Quality

  Air Quality AQ Index Pollutant
Yesterday Good
PM2.5
Yesterday Good
OZONE
Current Good
PM2.5
Current Good
OZONE
Tuesday Good
PM2.5
Wednesday Good
PM2.5
Thursday Moderate
PM2.5
Friday Moderate
PM2.5
Saturday Moderate
PM2.5

Snow Depth

Station Depth Elevation
Horse Meadow 0 in 8631 ft
Poison Flat 0 in 7900 ft
Forestdale Creek 0 in 8029 ft
Monitor Pass 1 in 8350 ft
Truckee #2 0 in 6400 ft

Earthquake Activity

City Distance Mag. Time & Date
South Dos Palos, California 99 miles 2.5 9:18 PM PDT
2014-09-29
American Canyon, California 45 miles 2.6 12:17 AM PDT
2014-09-29
South Dos Palos, California 99 miles 2.7 8:46 PM PDT
2014-09-28
South Dos Palos, California 100 miles 4.4 1:45 PM PDT
2014-09-28
Minimum magnitude displayed is 2.5.

Coastal Water Temperatures

Place Temperature
No Stations Reporting

Nearby Weather Stations